Time;durP1;ratioP1;P1;durP2;ratioP2;P2;SDS_P1;SDS_P2;PMS_P1;PMS_P2;Temp;Humidity;BMP_temperature;BMP_pressure;BME280_temperature;BME280_humidity;BME280_pressure;Samples;Min_cycle;Max_cycle;Signal;HPM_P1;HPM_P2
2023/11/12 00:00:12;;;;;;;1.60;1.10;;;9.50;99.90;;;;;;5050916;28;20663;-60
2023/11/12 00:02:39;;;;;;;1.83;1.10;;;9.50;99.90;;;;;;5050993;28;20201;-59
2023/11/12 00:05:08;;;;;;;1.77;1.20;;;9.40;99.90;;;;;;5050352;28;20646;-60
2023/11/12 00:07:34;;;;;;;1.13;1.03;;;9.50;99.90;;;;;;5051129;28;20206;-59
2023/11/12 00:10:03;;;;;;;0.77;0.77;;;9.40;99.90;;;;;;5051016;28;20232;-59
2023/11/12 00:12:31;;;;;;;1.10;1.00;;;9.40;99.90;;;;;;5050685;28;20607;-59
2023/11/12 00:14:58;;;;;;;2.37;1.20;;;9.40;99.90;;;;;;5050219;28;20571;-60
2023/11/12 00:17:25;;;;;;;1.30;0.80;;;9.40;99.90;;;;;;5050412;28;20209;-59
2023/11/12 00:19:52;;;;;;;1.80;0.97;;;9.40;99.90;;;;;;5055956;28;20201;-60
2023/11/12 00:22:20;;;;;;;2.17;1.07;;;9.50;99.90;;;;;;5057407;28;20243;-60
2023/11/12 00:24:47;;;;;;;3.13;1.20;;;9.60;99.90;;;;;;5057432;28;20203;-60
2023/11/12 00:27:15;;;;;;;3.20;1.67;;;9.70;99.90;;;;;;5057570;28;20206;-59
2023/11/12 00:29:42;;;;;;;3.63;2.43;;;9.60;99.90;;;;;;5057360;28;20590;-59
2023/11/12 00:32:08;;;;;;;2.20;1.50;;;9.60;99.90;;;;;;5057222;28;20221;-60
2023/11/12 00:34:35;;;;;;;1.63;1.10;;;9.70;99.90;;;;;;5057075;28;20525;-60
2023/11/12 00:37:02;;;;;;;1.63;1.07;;;9.70;99.90;;;;;;5057385;28;20253;-60
2023/11/12 00:39:29;;;;;;;1.27;1.00;;;9.70;99.90;;;;;;5057080;28;20213;-60
2023/11/12 00:41:56;;;;;;;1.90;1.13;;;9.70;99.90;;;;;;5057405;28;20229;-60
2023/11/12 00:44:24;;;;;;;1.30;0.93;;;9.80;99.90;;;;;;5057086;28;20209;-60
2023/11/12 00:46:51;;;;;;;1.33;1.10;;;9.80;99.90;;;;;;5049585;28;20210;-60
2023/11/12 00:49:18;;;;;;;1.50;1.10;;;9.70;99.90;;;;;;5057552;28;20210;-60
2023/11/12 00:51:45;;;;;;;1.97;1.17;;;9.70;99.90;;;;;;5057321;28;20252;-60
2023/11/12 00:54:12;;;;;;;1.50;1.10;;;9.70;99.90;;;;;;5057383;28;20655;-60
2023/11/12 00:56:39;;;;;;;0.93;0.80;;;9.60;99.90;;;;;;5057208;28;20224;-60
2023/11/12 00:59:06;;;;;;;2.23;0.90;;;9.50;99.90;;;;;;5056581;28;20659;-60
2023/11/12 01:01:34;;;;;;;1.53;1.17;;;9.40;99.90;;;;;;5056661;28;20230;-60
2023/11/12 01:04:01;;;;;;;2.50;1.00;;;9.40;99.90;;;;;;5056920;28;20251;-60
2023/11/12 01:06:28;;;;;;;1.23;0.90;;;9.50;99.90;;;;;;5056845;28;20197;-61
2023/11/12 01:08:55;;;;;;;5.10;1.60;;;9.60;99.90;;;;;;5056895;28;20254;-60
2023/11/12 01:11:22;;;;;;;3.03;1.13;;;9.60;99.90;;;;;;5056736;28;20222;-61
2023/11/12 01:13:48;;;;;;;1.43;1.07;;;9.50;99.90;;;;;;5056901;28;20205;-60
2023/11/12 01:16:15;;;;;;;1.43;0.93;;;9.50;99.90;;;;;;5057564;28;20225;-60
2023/11/12 01:18:45;;;;;;;1.47;1.10;;;9.50;99.90;;;;;;5057106;28;20690;-60
2023/11/12 01:21:14;;;;;;;2.07;1.20;;;9.60;99.90;;;;;;5057341;28;20244;-60
2023/11/12 01:23:41;;;;;;;1.57;0.93;;;9.60;99.90;;;;;;5056981;28;20233;-60
2023/11/12 01:26:07;;;;;;;1.10;0.83;;;9.50;99.90;;;;;;5057027;28;20198;-61
2023/11/12 01:28:34;;;;;;;1.07;0.90;;;9.40;99.90;;;;;;5057123;28;20240;-61
2023/11/12 01:31:02;;;;;;;1.93;1.10;;;9.40;99.90;;;;;;5054987;28;20475;-60
2023/11/12 01:33:29;;;;;;;1.67;0.83;;;9.40;99.90;;;;;;5053683;28;20206;-61
2023/11/12 01:35:57;;;;;;;2.17;0.90;;;9.40;99.90;;;;;;5053704;28;20225;-60
2023/11/12 01:38:24;;;;;;;1.07;0.80;;;9.50;99.90;;;;;;5053655;28;20674;-61
2023/11/12 01:40:51;;;;;;;2.10;1.00;;;9.50;99.90;;;;;;5053489;28;20233;-60
2023/11/12 01:43:19;;;;;;;1.70;1.10;;;9.50;99.90;;;;;;5053648;28;20263;-60
2023/11/12 01:45:46;;;;;;;2.03;0.90;;;9.60;99.90;;;;;;5053495;28;20206;-60
2023/11/12 01:48:14;;;;;;;1.30;1.00;;;9.50;99.90;;;;;;5053488;28;20581;-61
2023/11/12 01:50:42;;;;;;;1.53;1.00;;;9.50;99.90;;;;;;5053453;28;20702;-60
2023/11/12 01:53:14;;;;;;;1.67;1.07;;;9.50;99.90;;;;;;5053428;28;20210;-61
2023/11/12 01:55:41;;;;;;;1.63;1.10;;;9.50;99.90;;;;;;5053500;28;20226;-61
2023/11/12 01:58:10;;;;;;;1.23;0.97;;;9.50;99.90;;;;;;5053645;28;20209;-60
2023/11/12 02:00:39;;;;;;;1.67;1.20;;;9.40;99.90;;;;;;5053813;28;20339;-61
2023/11/12 02:03:08;;;;;;;1.87;1.10;;;9.40;99.90;;;;;;5053665;28;20263;-62
2023/11/12 02:05:35;;;;;;;2.43;1.20;;;9.40;99.90;;;;;;5053202;28;20308;-60
2023/11/12 02:08:05;;;;;;;1.60;1.03;;;9.40;99.90;;;;;;5053322;28;20237;-60
2023/11/12 02:10:35;;;;;;;1.63;1.00;;;9.50;99.90;;;;;;5052911;28;20213;-59
2023/11/12 02:13:04;;;;;;;1.20;0.90;;;9.50;99.90;;;;;;5053084;28;20209;-60
2023/11/12 02:15:32;;;;;;;4.63;1.27;;;9.50;99.90;;;;;;5052941;28;20210;-60
2023/11/12 02:17:59;;;;;;;2.23;1.00;;;9.60;99.90;;;;;;5052824;28;20561;-60
2023/11/12 02:20:27;;;;;;;0.93;0.80;;;9.60;99.90;;;;;;5052835;28;20221;-58
2023/11/12 02:22:54;;;;;;;1.70;1.00;;;9.50;99.90;;;;;;5053209;28;20202;-59
2023/11/12 02:25:22;;;;;;;1.37;1.07;;;9.50;99.90;;;;;;5052987;28;20343;-59
2023/11/12 02:27:49;;;;;;;1.23;0.90;;;9.60;99.90;;;;;;5052873;28;20563;-60
2023/11/12 02:30:18;;;;;;;1.60;1.00;;;9.50;99.90;;;;;;5052359;28;20205;-59
2023/11/12 02:32:47;;;;;;;0.97;0.80;;;9.50;99.90;;;;;;5052584;28;20252;-59
2023/11/12 02:35:14;;;;;;;1.10;0.83;;;9.50;99.90;;;;;;5052823;28;20260;-61
2023/11/12 02:37:41;;;;;;;1.70;0.90;;;9.50;99.90;;;;;;5052359;28;20229;-60
2023/11/12 02:40:09;;;;;;;0.93;0.80;;;9.50;99.90;;;;;;5052628;28;20208;-60
2023/11/12 02:42:37;;;;;;;2.13;1.00;;;9.50;99.90;;;;;;5052229;28;20229;-61
2023/11/12 02:45:05;;;;;;;2.27;1.40;;;9.70;99.90;;;;;;5052313;28;20259;-59
2023/11/12 02:47:31;;;;;;;1.37;0.93;;;9.50;99.90;;;;;;5052499;28;20210;-60
2023/11/12 02:50:20;;;;;;;1.97;1.00;;;9.50;99.90;;;;;;5052636;28;20209;-61
2023/11/12 02:52:47;;;;;;;2.47;1.00;;;9.40;99.90;;;;;;5052376;28;20214;-60
2023/11/12 02:55:16;;;;;;;1.50;0.90;;;9.40;99.90;;;;;;5052338;28;20663;-59
2023/11/12 02:57:45;;;;;;;1.53;1.00;;;9.40;99.90;;;;;;5051966;28;20279;-59
2023/11/12 03:00:12;;;;;;;1.27;0.97;;;9.40;99.90;;;;;;5052324;28;20202;-60
2023/11/12 03:02:39;;;;;;;1.80;1.03;;;9.20;99.90;;;;;;5052168;28;20232;-60
2023/11/12 03:05:08;;;;;;;5.03;1.30;;;9.50;99.90;;;;;;5051826;28;20277;-60
2023/11/12 03:07:35;;;;;;;1.53;1.27;;;9.50;99.90;;;;;;5051801;28;20711;-60
2023/11/12 03:10:04;;;;;;;2.17;1.00;;;9.50;99.90;;;;;;5052182;28;20218;-60
2023/11/12 03:12:31;;;;;;;1.37;0.90;;;9.50;99.90;;;;;;5051687;28;20234;-59
2023/11/12 03:14:59;;;;;;;2.20;1.20;;;9.40;99.90;;;;;;5051847;28;20206;-59
2023/11/12 03:17:26;;;;;;;1.13;1.03;;;9.20;99.90;;;;;;5052054;28;20228;-60
2023/11/12 03:19:53;;;;;;;1.30;0.77;;;8.90;99.90;;;;;;5051598;28;20675;-60
2023/11/12 03:22:21;;;;;;;1.20;1.00;;;8.60;99.90;;;;;;5051714;28;20237;-60
2023/11/12 03:24:48;;;;;;;4.30;1.87;;;8.40;99.90;;;;;;5051341;28;20267;-60
2023/11/12 03:27:14;;;;;;;3.27;2.40;;;8.30;99.90;;;;;;5051990;28;20281;-60
2023/11/12 03:29:41;;;;;;;1.27;0.97;;;8.20;99.90;;;;;;5051424;28;20292;-60
2023/11/12 03:32:10;;;;;;;2.70;0.97;;;8.10;99.90;;;;;;5051733;28;20257;-60
2023/11/12 03:34:37;;;;;;;1.43;1.10;;;8.00;99.90;;;;;;5051322;28;20575;-60
2023/11/12 03:37:04;;;;;;;2.10;1.00;;;7.90;99.90;;;;;;5051526;28;20236;-59
2023/11/12 03:39:31;;;;;;;1.70;1.13;;;7.70;99.90;;;;;;5051218;28;20697;-61
2023/11/12 03:41:58;;;;;;;1.50;0.93;;;7.70;99.90;;;;;;5051544;28;20662;-61
2023/11/12 03:44:25;;;;;;;1.47;1.10;;;7.60;99.90;;;;;;5051423;28;20636;-62
2023/11/12 03:46:51;;;;;;;1.17;1.00;;;7.50;99.90;;;;;;5051318;28;20210;-59
2023/11/12 03:49:19;;;;;;;2.03;1.37;;;7.40;99.90;;;;;;5051404;28;20205;-60
2023/11/12 03:51:47;;;;;;;1.50;1.20;;;7.30;99.90;;;;;;5051092;28;20706;-60
2023/11/12 03:54:13;;;;;;;1.07;0.80;;;7.20;99.90;;;;;;5050575;28;20296;-59
2023/11/12 03:56:40;;;;;;;1.33;1.00;;;7.20;99.90;;;;;;5051366;28;20226;-61
2023/11/12 03:59:07;;;;;;;2.63;1.00;;;7.10;99.90;;;;;;5051576;28;20217;-60
2023/11/12 04:01:33;;;;;;;5.00;1.43;;;7.10;99.90;;;;;;5051180;28;20221;-61
2023/11/12 04:04:00;;;;;;;3.03;1.30;;;7.20;99.90;;;;;;5051215;28;20604;-61
2023/11/12 04:06:28;;;;;;;1.83;1.30;;;7.10;99.90;;;;;;5051292;28;20202;-61
2023/11/12 04:08:55;;;;;;;3.03;1.23;;;7.00;99.90;;;;;;5042833;28;20212;-61
2023/11/12 04:11:22;;;;;;;3.67;1.30;;;7.00;99.90;;;;;;5051392;28;20232;-60
2023/11/12 04:13:48;;;;;;;3.10;1.30;;;7.00;99.90;;;;;;5051067;28;20247;-61
2023/11/12 04:16:15;;;;;;;1.17;1.03;;;7.00;99.90;;;;;;5051308;28;20682;-61
2023/11/12 04:18:43;;;;;;;1.27;1.10;;;6.90;99.90;;;;;;5051470;28;20225;-60
2023/11/12 04:21:10;;;;;;;1.53;0.90;;;6.80;99.90;;;;;;5088269;22;20225;-56
2023/11/12 04:23:38;;;;;;;2.00;1.30;;;6.80;99.90;;;;;;5102818;28;20208;-56
2023/11/12 04:26:06;;;;;;;2.87;1.00;;;6.70;99.90;;;;;;5111378;28;20208;-56
2023/11/12 04:28:33;;;;;;;1.70;0.90;;;6.70;99.90;;;;;;5110971;28;20582;-56
2023/11/12 04:30:59;;;;;;;1.63;1.00;;;6.70;99.90;;;;;;5111024;28;20220;-57
2023/11/12 04:33:26;;;;;;;2.43;1.27;;;6.70;99.90;;;;;;5094726;28;20210;-57
2023/11/12 04:35:53;;;;;;;1.50;1.03;;;6.70;99.90;;;;;;5090377;28;20674;-56
2023/11/12 04:38:20;;;;;;;2.83;1.30;;;6.70;99.90;;;;;;5090670;28;20815;-56
2023/11/12 04:40:48;;;;;;;4.60;1.70;;;6.70;99.90;;;;;;5090520;28;20212;-56
2023/11/12 04:43:15;;;;;;;4.30;1.87;;;6.70;99.90;;;;;;5090461;28;20212;-56
2023/11/12 04:45:42;;;;;;;2.40;1.80;;;6.60;99.90;;;;;;5092127;28;20204;-56
2023/11/12 04:48:09;;;;;;;3.57;2.03;;;6.40;99.90;;;;;;5097060;28;20640;-56
2023/11/12 04:50:37;;;;;;;3.77;1.70;;;6.30;99.90;;;;;;5098842;28;20212;-56
2023/11/12 04:53:03;;;;;;;3.70;1.80;;;6.30;99.90;;;;;;5090480;28;20300;-57
2023/11/12 04:55:30;;;;;;;4.03;2.40;;;6.30;99.90;;;;;;5090723;28;20645;-57
2023/11/12 04:57:58;;;;;;;2.67;1.80;;;6.20;99.90;;;;;;5107177;28;20316;-57
2023/11/12 05:00:25;;;;;;;3.47;1.33;;;6.20;99.90;;;;;;5090665;28;20223;-56
2023/11/12 05:02:52;;;;;;;4.63;2.30;;;6.10;99.90;;;;;;5092706;28;20322;-57
2023/11/12 05:05:19;;;;;;;4.13;2.67;;;6.10;99.90;;;;;;5097221;28;20278;-56
2023/11/12 05:07:45;;;;;;;5.93;3.10;;;6.00;99.90;;;;;;5102836;28;20492;-56
2023/11/12 05:10:13;;;;;;;4.23;2.60;;;6.00;99.90;;;;;;5094189;28;20212;-56
2023/11/12 05:12:40;;;;;;;4.40;2.67;;;5.80;99.90;;;;;;5110654;28;20696;-56
2023/11/12 05:15:10;;;;;;;4.97;2.70;;;5.80;99.90;;;;;;5093816;28;20208;-57
2023/11/12 05:17:37;;;;;;;2.93;2.30;;;5.80;99.90;;;;;;5103010;28;20228;-57
2023/11/12 05:20:05;;;;;;;4.43;2.20;;;5.80;99.90;;;;;;5101704;28;20207;-56
2023/11/12 05:22:31;;;;;;;3.87;2.43;;;5.80;99.90;;;;;;5093730;28;20556;-57
2023/11/12 05:24:58;;;;;;;4.17;2.20;;;5.80;99.90;;;;;;5093751;28;20204;-57
2023/11/12 05:27:25;;;;;;;5.87;2.47;;;5.80;99.90;;;;;;5093919;28;20658;-57
2023/11/12 05:29:52;;;;;;;3.00;2.00;;;5.80;99.90;;;;;;5102464;28;20282;-57
2023/11/12 05:32:21;;;;;;;4.10;1.87;;;5.80;99.90;;;;;;5108952;28;20223;-57
2023/11/12 05:34:47;;;;;;;3.23;2.10;;;5.70;99.90;;;;;;5094828;28;20550;-57
2023/11/12 05:37:14;;;;;;;5.40;2.17;;;5.60;99.90;;;;;;5093805;28;20273;-57
2023/11/12 05:39:41;;;;;;;2.27;1.70;;;5.50;99.90;;;;;;5095052;28;20646;-56
2023/11/12 05:42:08;;;;;;;3.40;1.97;;;5.30;99.90;;;;;;5100908;28;20715;-56
2023/11/12 05:44:35;;;;;;;3.23;1.93;;;5.20;99.90;;;;;;5093253;28;20215;-56
2023/11/12 05:47:02;;;;;;;2.13;1.63;;;5.20;99.90;;;;;;5094052;28;20211;-56
2023/11/12 05:49:30;;;;;;;2.63;1.90;;;5.20;99.90;;;;;;5093624;28;20204;-56
2023/11/12 05:51:57;;;;;;;2.30;1.87;;;5.20;99.90;;;;;;5105079;28;20632;-56
2023/11/12 05:54:24;;;;;;;3.23;1.60;;;5.20;99.90;;;;;;5098249;28;20207;-56
2023/11/12 05:56:51;;;;;;;3.60;2.00;;;5.30;99.90;;;;;;5095486;28;20243;-57
2023/11/12 05:59:17;;;;;;;3.97;2.30;;;5.30;99.90;;;;;;5098807;28;20371;-57
2023/11/12 06:01:44;;;;;;;2.30;2.10;;;5.30;99.90;;;;;;5101662;28;20220;-55
2023/11/12 06:04:10;;;;;;;3.33;2.20;;;5.20;99.90;;;;;;5093238;28;20274;-56
2023/11/12 06:06:39;;;;;;;5.53;3.63;;;5.20;99.90;;;;;;5101954;28;20605;-56
2023/11/12 06:09:07;;;;;;;12.00;7.17;;;5.20;99.90;;;;;;5093503;28;20658;-56
2023/11/12 06:11:37;;;;;;;9.07;5.50;;;5.40;99.90;;;;;;5093093;28;20281;-57
2023/11/12 06:14:03;;;;;;;3.97;2.30;;;5.50;99.90;;;;;;5097674;28;20294;-57
2023/11/12 06:16:30;;;;;;;3.80;2.43;;;5.50;99.90;;;;;;5096328;28;20211;-57
2023/11/12 06:18:58;;;;;;;4.57;1.90;;;5.70;99.90;;;;;;5096118;28;20223;-56
2023/11/12 06:21:24;;;;;;;3.50;1.80;;;5.80;99.90;;;;;;5113389;28;20708;-56
2023/11/12 06:23:53;;;;;;;2.80;1.90;;;5.90;99.90;;;;;;5113411;28;20208;-57
2023/11/12 06:26:21;;;;;;;2.63;1.83;;;5.90;99.90;;;;;;5113033;28;20596;-57
2023/11/12 06:28:48;;;;;;;2.53;1.73;;;6.00;99.90;;;;;;5113356;28;20199;-57
2023/11/12 06:31:15;;;;;;;3.23;1.90;;;6.00;99.90;;;;;;5113123;28;20219;-56
2023/11/12 06:33:42;;;;;;;3.33;2.10;;;6.00;99.90;;;;;;5111812;28;20715;-57
2023/11/12 06:36:13;;;;;;;3.20;2.10;;;6.00;99.90;;;;;;5106276;28;20195;-57
2023/11/12 06:38:41;;;;;;;3.63;2.17;;;6.10;99.90;;;;;;5113364;28;20212;-57
2023/11/12 06:41:10;;;;;;;1.90;1.70;;;6.10;99.90;;;;;;5100163;28;20660;-57
2023/11/12 06:43:36;;;;;;;2.17;1.80;;;6.20;99.90;;;;;;5101607;28;20242;-57
2023/11/12 06:46:04;;;;;;;3.80;2.30;;;6.30;99.90;;;;;;5101182;28;20208;-57
2023/11/12 06:48:31;;;;;;;4.83;2.47;;;6.30;99.90;;;;;;5100721;28;20200;-56
2023/11/12 06:50:58;;;;;;;5.17;2.97;;;6.30;99.90;;;;;;5112447;28;20219;-56
2023/11/12 06:53:25;;;;;;;6.93;3.10;;;6.30;99.90;;;;;;5105498;28;20586;-57
2023/11/12 06:55:51;;;;;;;4.40;3.03;;;6.30;99.90;;;;;;5103247;28;20204;-57
2023/11/12 06:58:19;;;;;;;4.23;2.60;;;6.30;99.90;;;;;;5112498;28;20574;-56
2023/11/12 07:00:46;;;;;;;2.90;2.10;;;6.20;99.90;;;;;;5112331;28;20204;-57
2023/11/12 07:03:13;;;;;;;3.17;2.40;;;6.20;99.90;;;;;;5112551;28;20208;-56
2023/11/12 07:05:40;;;;;;;4.27;2.70;;;6.20;99.90;;;;;;5112407;28;20210;-57
2023/11/12 07:08:06;;;;;;;4.73;2.97;;;6.30;99.90;;;;;;5108446;28;20220;-57
2023/11/12 07:10:34;;;;;;;5.30;3.20;;;6.30;99.90;;;;;;5092546;28;20200;-58
2023/11/12 07:13:00;;;;;;;4.63;2.87;;;6.50;99.90;;;;;;5104010;28;20203;-57
2023/11/12 07:15:29;;;;;;;5.67;3.17;;;6.40;99.90;;;;;;5112759;28;20651;-57
2023/11/12 07:17:55;;;;;;;3.70;2.53;;;6.40;99.90;;;;;;5113369;28;20267;-57
2023/11/12 07:20:25;;;;;;;4.30;2.70;;;6.30;99.90;;;;;;5106795;28;20204;-57
2023/11/12 07:22:51;;;;;;;3.70;2.20;;;6.30;99.90;;;;;;5092160;28;20282;-57
2023/11/12 07:25:18;;;;;;;3.27;2.10;;;6.40;99.90;;;;;;5106736;28;20209;-58
2023/11/12 07:27:45;;;;;;;2.10;1.80;;;6.60;99.90;;;;;;5112227;28;20537;-56
2023/11/12 07:30:12;;;;;;;6.03;1.90;;;6.70;99.90;;;;;;5107384;28;20211;-56
2023/11/12 07:32:40;;;;;;;3.17;1.67;;;6.90;99.90;;;;;;5091595;28;20227;-56
2023/11/12 07:35:08;;;;;;;2.63;2.10;;;7.00;99.90;;;;;;5096140;28;20271;-57
2023/11/12 07:37:36;;;;;;;3.87;1.83;;;7.00;99.90;;;;;;5103976;28;20224;-57
2023/11/12 07:40:04;;;;;;;4.77;2.20;;;7.00;99.90;;;;;;5104007;28;20211;-57
2023/11/12 07:42:30;;;;;;;3.27;2.13;;;7.00;99.90;;;;;;5111910;28;20219;-57
2023/11/12 07:44:57;;;;;;;4.13;2.27;;;7.10;99.90;;;;;;5111860;28;20261;-57
2023/11/12 07:47:24;;;;;;;2.07;1.87;;;7.20;99.90;;;;;;5112447;28;20207;-60
2023/11/12 07:49:52;;;;;;;2.53;1.83;;;7.20;99.90;;;;;;5111874;28;20203;-55
2023/11/12 07:52:18;;;;;;;3.83;2.00;;;7.30;99.90;;;;;;5112063;28;20216;-55
2023/11/12 07:54:45;;;;;;;3.83;1.70;;;7.40;99.90;;;;;;5111815;28;20195;-56
2023/11/12 07:57:12;;;;;;;2.90;1.90;;;7.40;99.90;;;;;;5111659;28;20218;-56
2023/11/12 07:59:38;;;;;;;3.63;2.00;;;7.40;99.90;;;;;;5111732;28;20200;-55
2023/11/12 08:02:06;;;;;;;3.60;2.20;;;7.40;99.90;;;;;;5111734;28;20216;-56
2023/11/12 08:04:32;;;;;;;4.17;2.00;;;7.50;99.90;;;;;;5111787;28;20206;-55
2023/11/12 08:07:00;;;;;;;4.03;2.93;;;7.60;99.90;;;;;;5111699;28;20200;-55
2023/11/12 08:09:27;;;;;;;4.93;3.30;;;7.60;99.90;;;;;;5111753;28;20606;-59
2023/11/12 08:11:54;;;;;;;7.00;3.90;;;7.60;99.90;;;;;;5111799;28;20614;-58
2023/11/12 08:14:20;;;;;;;4.83;3.30;;;7.70;99.90;;;;;;5111568;28;20199;-57
2023/11/12 08:16:47;;;;;;;5.60;3.13;;;7.80;99.90;;;;;;5111563;28;20199;-57
2023/11/12 08:19:14;;;;;;;4.50;2.83;;;8.00;99.90;;;;;;5111572;28;20219;-56
2023/11/12 08:21:41;;;;;;;3.70;2.73;;;8.10;99.90;;;;;;5094328;28;20232;-56
2023/11/12 08:24:09;;;;;;;4.03;2.60;;;8.20;99.90;;;;;;5111678;28;20282;-57
2023/11/12 08:26:38;;;;;;;4.03;2.90;;;8.40;99.90;;;;;;5111825;28;20203;-58
2023/11/12 08:29:06;;;;;;;3.53;2.80;;;8.50;99.90;;;;;;5103081;28;20295;-57
2023/11/12 08:31:33;;;;;;;4.13;2.70;;;8.70;99.90;;;;;;5111372;28;20246;-57
2023/11/12 08:34:00;;;;;;;4.37;2.70;;;8.80;99.90;;;;;;5111208;28;20200;-57
2023/11/12 08:36:27;;;;;;;5.50;3.00;;;8.90;99.90;;;;;;5111308;28;20652;-57
2023/11/12 08:38:54;;;;;;;3.97;2.30;;;9.10;99.90;;;;;;5110870;28;20223;-57
2023/11/12 08:41:22;;;;;;;3.60;2.23;;;9.20;99.90;;;;;;5113727;28;20720;-57
2023/11/12 08:43:49;;;;;;;2.70;2.10;;;9.30;99.90;;;;;;5111915;28;20207;-55
2023/11/12 08:46:17;;;;;;;5.00;2.63;;;9.40;99.90;;;;;;5115481;28;20203;-57
2023/11/12 08:48:44;;;;;;;4.90;2.50;;;9.50;99.90;;;;;;5115436;28;20608;-56
2023/11/12 08:51:11;;;;;;;4.07;2.30;;;9.60;99.90;;;;;;5115210;28;20715;-57
2023/11/12 08:53:39;;;;;;;2.00;1.80;;;9.60;99.90;;;;;;5114537;28;20207;-56
2023/11/12 08:56:06;;;;;;;2.80;2.03;;;9.60;99.90;;;;;;5114237;28;20229;-58
2023/11/12 08:58:35;;;;;;;3.23;1.87;;;9.50;99.90;;;;;;5114619;28;20586;-58
2023/11/12 09:01:03;;;;;;;2.63;2.17;;;9.50;99.90;;;;;;5114542;28;20231;-58
2023/11/12 09:03:30;;;;;;;2.50;1.83;;;9.50;99.90;;;;;;5113845;28;20206;-59
2023/11/12 09:05:57;;;;;;;2.13;1.60;;;9.50;99.90;;;;;;5114498;28;20624;-57
2023/11/12 09:08:24;;;;;;;2.57;1.67;;;9.50;99.90;;;;;;5114473;28;20206;-58
2023/11/12 09:10:51;;;;;;;2.50;1.77;;;9.50;99.90;;;;;;5114246;28;20211;-56
2023/11/12 09:13:18;;;;;;;3.90;2.03;;;9.50;99.90;;;;;;5114461;28;20204;-58
2023/11/12 09:15:47;;;;;;;3.60;2.30;;;9.40;99.90;;;;;;5112552;28;20222;-57
2023/11/12 09:18:13;;;;;;;3.03;2.20;;;9.50;99.90;;;;;;5100901;28;20256;-57
2023/11/12 09:20:40;;;;;;;3.17;1.90;;;9.40;99.90;;;;;;5107211;28;20226;-57
2023/11/12 09:23:07;;;;;;;3.93;1.57;;;9.20;99.90;;;;;;5113926;28;20265;-58
2023/11/12 09:25:33;;;;;;;3.50;2.07;;;9.10;99.90;;;;;;5113665;28;20200;-57
2023/11/12 09:28:00;;;;;;;4.53;1.77;;;8.90;99.90;;;;;;5094508;28;20196;-57
2023/11/12 09:30:31;;;;;;;2.53;1.67;;;8.90;99.90;;;;;;5093693;28;20200;-61
2023/11/12 09:32:59;;;;;;;1.93;1.33;;;9.00;99.90;;;;;;5093299;28;20220;-58
2023/11/12 09:35:25;;;;;;;2.40;1.80;;;9.20;99.90;;;;;;5093805;28;20242;-59
2023/11/12 09:37:52;;;;;;;2.23;1.63;;;9.30;99.90;;;;;;5093210;28;20204;-58
2023/11/12 09:40:20;;;;;;;2.57;1.63;;;9.40;99.90;;;;;;5093625;28;20623;-58
2023/11/12 09:42:48;;;;;;;4.87;3.90;;;9.40;99.90;;;;;;5093367;28;20240;-57
2023/11/12 09:45:18;;;;;;;3.37;2.20;;;9.40;99.90;;;;;;5093592;28;20204;-58
2023/11/12 09:47:53;;;;;;;4.00;2.30;;;9.50;99.90;;;;;;5093480;28;20613;-59
2023/11/12 09:50:21;;;;;;;2.07;1.60;;;9.60;99.90;;;;;;5093532;28;20261;-58
2023/11/12 09:52:48;;;;;;;2.90;1.70;;;9.70;99.90;;;;;;5092484;28;20336;-57
2023/11/12 09:55:16;;;;;;;3.13;1.70;;;9.60;99.90;;;;;;5093281;28;20283;-58
2023/11/12 09:57:44;;;;;;;2.67;1.53;;;9.60;99.90;;;;;;5093347;28;20200;-57
2023/11/12 10:00:12;;;;;;;1.87;1.13;;;9.80;99.90;;;;;;5093407;28;20224;-57
2023/11/12 10:02:39;;;;;;;2.97;1.70;;;9.90;99.90;;;;;;5093263;28;20224;-55
2023/11/12 10:05:10;;;;;;;1.80;1.17;;;10.10;99.90;;;;;;5105202;28;20219;-58
2023/11/12 10:07:38;;;;;;;2.70;0.90;;;10.30;99.90;;;;;;5113469;28;20208;-58
2023/11/12 10:10:24;;;;;;;1.63;0.97;;;10.50;99.90;;;;;;5113878;28;20195;-59
2023/11/12 10:12:52;;;;;;;3.43;1.20;;;10.70;99.90;;;;;;5113377;28;20241;-59
2023/11/12 10:15:23;;;;;;;0.70;0.60;;;11.00;99.90;;;;;;5106255;28;20559;-56
2023/11/12 10:17:50;;;;;;;5.00;1.27;;;11.20;99.90;;;;;;5103801;28;20654;-58
2023/11/12 10:20:20;;;;;;;3.40;1.30;;;11.40;99.90;;;;;;5113390;28;20230;-56
2023/11/12 10:22:50;;;;;;;2.60;1.50;;;11.60;99.90;;;;;;5094594;22;20225;-60
2023/11/12 10:25:37;;;;;;;3.67;1.10;;;11.80;99.90;;;;;;5065684;28;20227;-59
2023/11/12 10:28:04;;;;;;;3.40;1.10;;;11.90;99.90;;;;;;5072492;28;20212;-60
2023/11/12 10:30:31;;;;;;;2.00;0.87;;;12.10;99.90;;;;;;5072984;28;20266;-60
2023/11/12 10:33:15;;;;;;;1.17;0.90;;;12.00;99.90;;;;;;5071901;28;20228;-60
2023/11/12 10:35:42;;;;;;;5.20;3.60;;;12.10;99.90;;;;;;5072421;28;20549;-59
2023/11/12 10:38:12;;;;;;;5.50;3.60;;;12.20;99.90;;;;;;5071839;28;20290;-60
2023/11/12 10:40:57;;;;;;;3.47;1.70;;;12.20;99.90;;;;;;5072594;28;20208;-59
2023/11/12 10:43:24;;;;;;;2.20;1.03;;;12.30;99.90;;;;;;5055705;28;20205;-58
2023/11/12 10:45:57;;;;;;;5.13;1.20;;;12.40;99.90;;;;;;5069443;28;20216;-59
2023/11/12 10:48:30;;;;;;;4.50;1.43;;;12.40;99.90;;;;;;5065101;28;20205;-59
2023/11/12 10:50:59;;;;;;;2.23;1.00;;;12.40;99.90;;;;;;5070119;28;20217;-60
2023/11/12 10:53:29;;;;;;;4.43;1.80;;;12.40;99.90;;;;;;5068655;28;20205;-60
2023/11/12 10:55:56;;;;;;;2.10;1.30;;;12.50;99.90;;;;;;5067435;28;20209;-60
2023/11/12 10:58:25;;;;;;;2.33;1.13;;;12.50;99.90;;;;;;5071458;28;20209;-58
2023/11/12 11:00:55;;;;;;;1.73;1.00;;;12.50;99.90;;;;;;5072225;28;20213;-59
2023/11/12 11:03:25;;;;;;;3.13;1.13;;;12.60;99.90;;;;;;5071754;28;20241;-61
2023/11/12 11:05:53;;;;;;;1.87;1.17;;;12.60;99.90;;;;;;5072387;28;20648;-60
2023/11/12 11:08:20;;;;;;;2.03;1.10;;;12.80;99.90;;;;;;5069987;28;20216;-60
2023/11/12 11:10:48;;;;;;;4.27;2.23;;;12.90;99.90;;;;;;5060791;28;20201;-62
2023/11/12 11:13:15;;;;;;;3.13;1.30;;;13.10;99.90;;;;;;5070158;28;20208;-58
2023/11/12 11:15:43;;;;;;;5.50;2.67;;;13.20;99.90;;;;;;5063577;28;20198;-58
2023/11/12 11:18:52;;;;;;;4.77;1.40;;;13.30;99.90;;;;;;5043797;28;20217;-58
2023/11/12 11:21:20;;;;;;;1.87;1.07;;;13.50;99.90;;;;;;5044968;28;20217;-58
2023/11/12 11:23:51;;;;;;;2.30;1.40;;;13.50;99.90;;;;;;5051482;28;20587;-57
2023/11/12 11:26:30;;;;;;;2.63;1.00;;;13.60;99.90;;;;;;5051938;28;20208;-57
2023/11/12 11:29:14;;;;;;;3.87;1.20;;;13.70;99.90;;;;;;5052086;28;20204;-57
2023/11/12 11:31:43;;;;;;;1.70;0.77;;;13.80;99.90;;;;;;5051939;28;20229;-58
2023/11/12 11:34:12;;;;;;;3.30;1.07;;;13.80;99.90;;;;;;5043290;28;20202;-58
2023/11/12 11:36:40;;;;;;;1.87;1.13;;;13.90;99.90;;;;;;5051561;28;20206;-58
2023/11/12 11:39:28;;;;;;;4.43;1.77;;;13.80;99.90;;;;;;5051405;28;20249;-58
2023/11/12 11:42:19;;;;;;;4.20;1.50;;;14.00;99.90;;;;;;5051591;28;20229;-58
2023/11/12 11:44:46;;;;;;;2.93;1.40;;;13.90;99.90;;;;;;5051474;28;20648;-58
2023/11/12 11:47:14;;;;;;;3.77;1.30;;;13.80;99.90;;;;;;5051415;28;20280;-57
2023/11/12 11:49:42;;;;;;;4.80;2.10;;;13.70;99.90;;;;;;5051607;28;20236;-58
2023/11/12 11:52:09;;;;;;;2.47;1.20;;;13.60;99.90;;;;;;5051355;28;20228;-58
2023/11/12 11:54:36;;;;;;;1.93;1.17;;;13.50;99.90;;;;;;5050910;28;20697;-58
2023/11/12 11:57:04;;;;;;;3.37;1.50;;;13.40;99.90;;;;;;5051384;28;20286;-58
2023/11/12 11:59:35;;;;;;;3.03;1.77;;;13.40;99.90;;;;;;5050730;28;20305;-57
2023/11/12 12:02:04;;;;;;;3.30;1.40;;;13.40;99.90;;;;;;5051238;28;20233;-58
2023/11/12 12:04:31;;;;;;;4.97;3.00;;;13.30;99.90;;;;;;5051144;28;20260;-57
2023/11/12 12:06:58;;;;;;;6.07;3.00;;;13.40;99.90;;;;;;5050803;28;20217;-57
2023/11/12 12:09:25;;;;;;;5.73;2.87;;;13.40;99.90;;;;;;5051033;28;20254;-57
2023/11/12 12:11:53;;;;;;;2.63;1.60;;;13.30;99.90;;;;;;5050587;28;20230;-62
2023/11/12 12:14:21;;;;;;;3.57;1.33;;;13.20;99.90;;;;;;5050143;28;20206;-58
2023/11/12 12:16:49;;;;;;;3.07;2.40;;;13.10;99.90;;;;;;5050876;28;20387;-59
2023/11/12 12:19:19;;;;;;;2.33;1.27;;;13.20;99.90;;;;;;5051092;28;20218;-59
2023/11/12 12:21:47;;;;;;;3.23;1.50;;;13.10;99.90;;;;;;5050763;28;20777;-58
2023/11/12 12:24:14;;;;;;;3.13;1.57;;;13.10;99.90;;;;;;5051179;28;20201;-58
2023/11/12 12:26:41;;;;;;;3.60;2.03;;;13.10;99.90;;;;;;5050826;28;20284;-58
2023/11/12 12:29:16;;;;;;;2.13;1.30;;;13.00;99.90;;;;;;5050710;28;20205;-58
2023/11/12 12:31:44;;;;;;;1.73;1.27;;;12.80;99.90;;;;;;5051074;28;20640;-58
2023/11/12 12:34:16;;;;;;;3.17;1.30;;;12.70;99.90;;;;;;5042819;28;20345;-58
2023/11/12 12:37:05;;;;;;;2.13;1.43;;;12.70;99.90;;;;;;5050970;28;20436;-59
2023/11/12 12:39:57;;;;;;;5.50;1.60;;;12.70;99.90;;;;;;5045799;28;20218;-58
2023/11/12 12:42:26;;;;;;;2.03;1.47;;;12.70;99.90;;;;;;5044657;28;20225;-59
2023/11/12 12:44:54;;;;;;;3.30;1.77;;;12.60;99.90;;;;;;5050355;28;20209;-59
2023/11/12 12:47:33;;;;;;;3.70;1.70;;;12.40;99.90;;;;;;5050729;28;20202;-59
2023/11/12 12:50:14;;;;;;;2.40;1.50;;;12.40;99.90;;;;;;5050535;28;20208;-59
2023/11/12 12:52:44;;;;;;;9.50;6.60;;;12.40;99.90;;;;;;5050672;28;20221;-59
2023/11/12 12:55:12;;;;;;;5.13;2.43;;;12.40;99.90;;;;;;5042465;28;20240;-59
2023/11/12 12:57:40;;;;;;;3.93;1.93;;;12.30;99.90;;;;;;5050593;28;20203;-58
2023/11/12 13:00:11;;;;;;;2.13;1.53;;;12.30;99.90;;;;;;5050381;28;20275;-57